Dost 1 — TCPI — position and weather

sailwx.info

Track history (hours):
 
Tides and Currents Weather Stations Pressure Air Temp Water Temp Dewpoint Dewpoint Depression Visibility Wind Speed Wind Dir Waves Ship Positions

Dost 1

Last reported at 2015-Aug-31 03:31 UTC. Time now 2015-Aug-31 21:51 UTC.
Position N 44°44' E 037°48'.

Length 115 m; draft 4.3 m.

Type: Cargo ship. MMSI: 271000303.

Date/timePositionNaut miles runAvg speedWind from/ knotsBaromVisibWave heightAir tempDewpointWater temp
2015-Aug-31 03:31N 44°44' E 037°48'0 0.0
2015-Aug-31 02:33N 44°44' E 037°48'0 0.0
2015-Aug-31 01:33N 44°44' E 037°48'0 0.0
2015-Aug-31 00:32N 44°44' E 037°48'0 0.0
2015-Aug-30 23:32N 44°44' E 037°48'0 0.0
2015-Aug-30 22:32N 44°44' E 037°48'0 0.0
2015-Aug-30 21:31N 44°44' E 037°48'0 0.0
2015-Aug-30 20:31N 44°44' E 037°48'0 0.0
2015-Aug-30 19:33N 44°44' E 037°48'0 0.0
2015-Aug-30 14:19N 44°44' E 037°48'0 0.0
2015-Aug-30 13:31N 44°44' E 037°48'0 0.0
2015-Aug-30 12:33N 44°44' E 037°48'0 0.0
2015-Aug-30 11:30N 44°44' E 037°48'0 0.0
2015-Aug-30 10:32N 44°44' E 037°48'0 0.0
2015-Aug-30 09:29N 44°44' E 037°48'0 0.0
2015-Aug-30 08:31N 44°44' E 037°48'0 0.0
2015-Aug-30 07:31N 44°44' E 037°48'0 0.0
2015-Aug-30 06:31N 44°44' E 037°48'0 0.0
2015-Aug-30 05:33N 44°44' E 037°48'0 0.0
2015-Aug-30 04:33N 44°44' E 037°48'1 1.0
2015-Aug-30 03:33N 44°43' E 037°48'6 5.6
2015-Aug-30 02:33N 44°38' E 037°51'7 7.2
2015-Aug-30 01:33N 44°31' E 037°46'1211.5
2015-Aug-30 00:31N 44°27' E 037°31'1111.6
2015-Aug-29 23:33N 44°21' E 037°17'1111.3
2015-Aug-29 22:33N 44°15' E 037°04'1111.3
2015-Aug-29 21:33N 44°10' E 036°50'1211.9
2015-Aug-29 20:33N 44°04' E 036°35'1212.1
2015-Aug-29 19:33N 43°58' E 036°21'1211.7
2015-Aug-29 18:33N 43°53' E 036°06'1211.7
2015-Aug-29 17:33N 43°47' E 035°52'1211.7
2015-Aug-29 16:33N 43°42' E 035°37'1211.8
2015-Aug-29 15:33N 43°37' E 035°23'1212.1
2015-Aug-29 14:33N 43°31' E 035°08'1212.0
2015-Aug-29 13:33N 43°26' E 034°53'1212.1
2015-Aug-29 12:34N 43°21' E 034°39'1212.1
2015-Aug-29 11:33N 43°15' E 034°24'1812.1
2015-Aug-29 10:06N 43°06' E 034°03'  
2015-Aug-26 03:31N 40°57' E 028°54'0 0.0
2015-Aug-26 01:25N 40°57' E 028°54'0 0.0
2015-Aug-25 23:24N 40°57' E 028°54'0 0.0
2015-Aug-25 22:05N 40°57' E 028°54'0 0.0
2015-Aug-25 21:23N 40°57' E 028°54'0 0.0
2015-Aug-25 20:04N 40°57' E 028°54'0 0.0
2015-Aug-25 17:33N 40°57' E 028°54'0 0.0
2015-Aug-25 16:08N 40°57' E 028°54'0 0.0
2015-Aug-25 15:26N 40°57' E 028°54'0 0.0
2015-Aug-25 14:32N 40°57' E 028°54'0 0.0
2015-Aug-25 04:34N 40°57' E 028°54'0 0.0
2015-Aug-25 03:33N 40°57' E 028°54'0 0.0
2015-Aug-25 01:08N 40°57' E 028°54'0 0.0
2015-Aug-24 21:30N 40°57' E 028°54'0 0.0
2015-Aug-24 20:24N 40°57' E 028°54'0 0.0
2015-Aug-24 19:23N 40°57' E 028°54'0 0.0
2015-Aug-24 18:22N 40°57' E 028°54'2 2.9
2015-Aug-24 17:33N 40°56' E 028°56'1110.8
2015-Aug-24 16:33N 40°49' E 029°07'1312.5
2015-Aug-24 15:33N 40°45' E 029°22'8 0.4
2015-Aug-23 17:28N 40°46' E 029°33'0 0.0
2015-Aug-23 15:15N 40°46' E 029°33'0 0.0
2015-Aug-23 12:32N 40°46' E 029°33'0 0.0
2015-Aug-23 10:31N 40°46' E 029°33'0 0.0
2015-Aug-23 07:24N 40°46' E 029°33'  
Track history (hours):
 
Tides and Currents Weather Stations Pressure Air Temp Water Temp Dewpoint Dewpoint Depression Visibility Wind Speed Wind Dir Waves Ship Positions

Dost 1

Last reported at 2015-Aug-31 03:31 UTC. Time now 2015-Aug-31 21:52 UTC.
Position N 44°44' E 037°48'.

Length 115 m; draft 4.3 m.

Type: Cargo ship. MMSI: 271000303.

Date/timePositionNaut miles runAvg speedWind from/ knotsBaromVisibWave heightAir tempDewpointWater temp
2015-Aug-31 03:31N 44°44' E 037°48'0 0.0
2015-Aug-31 02:33N 44°44' E 037°48'0 0.0
2015-Aug-31 01:33N 44°44' E 037°48'0 0.0
2015-Aug-31 00:32N 44°44' E 037°48'0 0.0
2015-Aug-30 23:32N 44°44' E 037°48'0 0.0
2015-Aug-30 22:32N 44°44' E 037°48'0 0.0
2015-Aug-30 21:31N 44°44' E 037°48'0 0.0
2015-Aug-30 20:31N 44°44' E 037°48'0 0.0
2015-Aug-30 19:33N 44°44' E 037°48'0 0.0
2015-Aug-30 14:19N 44°44' E 037°48'0 0.0
2015-Aug-30 13:31N 44°44' E 037°48'0 0.0
2015-Aug-30 12:33N 44°44' E 037°48'0 0.0
2015-Aug-30 11:30N 44°44' E 037°48'0 0.0
2015-Aug-30 10:32N 44°44' E 037°48'0 0.0
2015-Aug-30 09:29N 44°44' E 037°48'0 0.0
2015-Aug-30 08:31N 44°44' E 037°48'0 0.0
2015-Aug-30 07:31N 44°44' E 037°48'0 0.0
2015-Aug-30 06:31N 44°44' E 037°48'0 0.0
2015-Aug-30 05:33N 44°44' E 037°48'0 0.0
2015-Aug-30 04:33N 44°44' E 037°48'1 1.0
2015-Aug-30 03:33N 44°43' E 037°48'6 5.6
2015-Aug-30 02:33N 44°38' E 037°51'7 7.2
2015-Aug-30 01:33N 44°31' E 037°46'1211.5
2015-Aug-30 00:31N 44°27' E 037°31'1111.6
2015-Aug-29 23:33N 44°21' E 037°17'1111.3
2015-Aug-29 22:33N 44°15' E 037°04'1111.3
2015-Aug-29 21:33N 44°10' E 036°50'1211.9
2015-Aug-29 20:33N 44°04' E 036°35'1212.1
2015-Aug-29 19:33N 43°58' E 036°21'1211.7
2015-Aug-29 18:33N 43°53' E 036°06'1211.7
2015-Aug-29 17:33N 43°47' E 035°52'1211.7
2015-Aug-29 16:33N 43°42' E 035°37'1211.8
2015-Aug-29 15:33N 43°37' E 035°23'1212.1
2015-Aug-29 14:33N 43°31' E 035°08'1212.0
2015-Aug-29 13:33N 43°26' E 034°53'1212.1
2015-Aug-29 12:34N 43°21' E 034°39'1212.1
2015-Aug-29 11:33N 43°15' E 034°24'1812.1
2015-Aug-29 10:06N 43°06' E 034°03'  
2015-Aug-26 03:31N 40°57' E 028°54'0 0.0
2015-Aug-26 01:25N 40°57' E 028°54'0 0.0
2015-Aug-25 23:24N 40°57' E 028°54'0 0.0
2015-Aug-25 22:05N 40°57' E 028°54'0 0.0
2015-Aug-25 21:23N 40°57' E 028°54'0 0.0
2015-Aug-25 20:04N 40°57' E 028°54'0 0.0
2015-Aug-25 17:33N 40°57' E 028°54'0 0.0
2015-Aug-25 16:08N 40°57' E 028°54'0 0.0
2015-Aug-25 15:26N 40°57' E 028°54'0 0.0
2015-Aug-25 14:32N 40°57' E 028°54'0 0.0
2015-Aug-25 04:34N 40°57' E 028°54'0 0.0
2015-Aug-25 03:33N 40°57' E 028°54'0 0.0
2015-Aug-25 01:08N 40°57' E 028°54'0 0.0
2015-Aug-24 21:30N 40°57' E 028°54'0 0.0
2015-Aug-24 20:24N 40°57' E 028°54'0 0.0
2015-Aug-24 19:23N 40°57' E 028°54'0 0.0
2015-Aug-24 18:22N 40°57' E 028°54'2 2.9
2015-Aug-24 17:33N 40°56' E 028°56'1110.8
2015-Aug-24 16:33N 40°49' E 029°07'1312.5
2015-Aug-24 15:33N 40°45' E 029°22'8 0.4
2015-Aug-23 17:28N 40°46' E 029°33'0 0.0
2015-Aug-23 15:15N 40°46' E 029°33'0 0.0
2015-Aug-23 12:32N 40°46' E 029°33'0 0.0
2015-Aug-23 10:31N 40°46' E 029°33'0 0.0
2015-Aug-23 07:24N 40°46' E 029°33'  

Dump ship's entire track history